sensor_id;sensor_type;location;lat;lon;timestamp;temperature;humidity
8707;DHT22;4390;49.302;9.306;2022-08-19T00:01:50;23.70;76.40
8707;DHT22;4390;49.302;9.306;2022-08-19T00:04:22;23.70;76.90
8707;DHT22;4390;49.302;9.306;2022-08-19T00:06:49;23.80;76.60
8707;DHT22;4390;49.302;9.306;2022-08-19T00:09:17;23.60;76.80
8707;DHT22;4390;49.302;9.306;2022-08-19T00:11:44;23.70;76.80
8707;DHT22;4390;49.302;9.306;2022-08-19T00:14:13;23.80;76.50
8707;DHT22;4390;49.302;9.306;2022-08-19T00:16:43;24.00;76.10
8707;DHT22;4390;49.302;9.306;2022-08-19T00:19:10;24.00;76.10
8707;DHT22;4390;49.302;9.306;2022-08-19T00:21:37;23.90;76.30
8707;DHT22;4390;49.302;9.306;2022-08-19T00:24:08;23.80;76.60
8707;DHT22;4390;49.302;9.306;2022-08-19T00:26:35;23.80;76.60
8707;DHT22;4390;49.302;9.306;2022-08-19T00:29:04;23.90;76.40
8707;DHT22;4390;49.302;9.306;2022-08-19T00:31:31;24.00;76.10
8707;DHT22;4390;49.302;9.306;2022-08-19T00:33:58;24.10;76.10
8707;DHT22;4390;49.302;9.306;2022-08-19T00:36:25;24.10;75.90
8707;DHT22;4390;49.302;9.306;2022-08-19T00:38:54;24.20;75.60
8707;DHT22;4390;49.302;9.306;2022-08-19T00:41:23;24.30;75.40
8707;DHT22;4390;49.302;9.306;2022-08-19T00:44:12;24.40;75.30
8707;DHT22;4390;49.302;9.306;2022-08-19T00:46:43;24.40;75.30
8707;DHT22;4390;49.302;9.306;2022-08-19T00:49:40;24.40;75.30
8707;DHT22;4390;49.302;9.306;2022-08-19T00:52:11;24.50;75.30
8707;DHT22;4390;49.302;9.306;2022-08-19T00:54:40;24.50;75.20
8707;DHT22;4390;49.302;9.306;2022-08-19T00:57:10;24.50;75.20
8707;DHT22;4390;49.302;9.306;2022-08-19T00:59:41;24.50;75.20
8707;DHT22;4390;49.302;9.306;2022-08-19T01:02:28;24.40;75.60
8707;DHT22;4390;49.302;9.306;2022-08-19T01:04:56;24.30;75.70
8707;DHT22;4390;49.302;9.306;2022-08-19T01:07:23;24.30;75.70
8707;DHT22;4390;49.302;9.306;2022-08-19T01:09:50;24.20;75.80
8707;DHT22;4390;49.302;9.306;2022-08-19T01:12:17;24.10;76.00
8707;DHT22;4390;49.302;9.306;2022-08-19T01:14:46;23.90;76.40
8707;DHT22;4390;49.302;9.306;2022-08-19T01:17:15;23.90;76.60
8707;DHT22;4390;49.302;9.306;2022-08-19T01:19:43;23.80;76.70
8707;DHT22;4390;49.302;9.306;2022-08-19T01:22:32;23.80;76.70
8707;DHT22;4390;49.302;9.306;2022-08-19T01:25:01;23.90;76.80
8707;DHT22;4390;49.302;9.306;2022-08-19T01:27:38;23.90;76.80
8707;DHT22;4390;49.302;9.306;2022-08-19T01:30:13;23.90;76.90
8707;DHT22;4390;49.302;9.306;2022-08-19T01:32:40;23.90;76.80
8707;DHT22;4390;49.302;9.306;2022-08-19T01:35:07;24.00;76.60
8707;DHT22;4390;49.302;9.306;2022-08-19T01:40:14;24.00;76.60
8707;DHT22;4390;49.302;9.306;2022-08-19T01:42:40;24.10;76.50
8707;DHT22;4390;49.302;9.306;2022-08-19T01:45:08;24.10;76.50
8707;DHT22;4390;49.302;9.306;2022-08-19T01:47:36;24.20;76.30
8707;DHT22;4390;49.302;9.306;2022-08-19T01:50:05;24.20;76.20
8707;DHT22;4390;49.302;9.306;2022-08-19T01:52:36;24.30;76.10
8707;DHT22;4390;49.302;9.306;2022-08-19T01:55:05;24.30;76.10
8707;DHT22;4390;49.302;9.306;2022-08-19T01:57:33;24.30;76.10
8707;DHT22;4390;49.302;9.306;2022-08-19T02:00:00;24.30;76.00
8707;DHT22;4390;49.302;9.306;2022-08-19T02:02:37;24.20;76.20
8707;DHT22;4390;49.302;9.306;2022-08-19T02:05:04;24.20;76.30
8707;DHT22;4390;49.302;9.306;2022-08-19T02:07:37;24.20;76.30
8707;DHT22;4390;49.302;9.306;2022-08-19T02:10:12;24.20;76.20
8707;DHT22;4390;49.302;9.306;2022-08-19T02:12:42;24.20;76.20
8707;DHT22;4390;49.302;9.306;2022-08-19T02:15:09;24.10;76.50
8707;DHT22;4390;49.302;9.306;2022-08-19T02:17:36;24.10;76.70
8707;DHT22;4390;49.302;9.306;2022-08-19T02:20:03;24.10;76.70
8707;DHT22;4390;49.302;9.306;2022-08-19T02:22:32;24.00;76.80
8707;DHT22;4390;49.302;9.306;2022-08-19T02:24:59;23.90;76.90
8707;DHT22;4390;49.302;9.306;2022-08-19T02:27:26;23.90;77.10
8707;DHT22;4390;49.302;9.306;2022-08-19T02:29:53;23.80;77.20
8707;DHT22;4390;49.302;9.306;2022-08-19T02:32:20;23.60;77.60
8707;DHT22;4390;49.302;9.306;2022-08-19T02:34:47;23.50;77.90
8707;DHT22;4390;49.302;9.306;2022-08-19T02:37:14;23.40;78.00
8707;DHT22;4390;49.302;9.306;2022-08-19T02:40:00;23.50;78.00
8707;DHT22;4390;49.302;9.306;2022-08-19T02:42:29;23.50;77.90
8707;DHT22;4390;49.302;9.306;2022-08-19T02:44:56;23.50;78.10
8707;DHT22;4390;49.302;9.306;2022-08-19T02:47:22;23.50;77.90
8707;DHT22;4390;49.302;9.306;2022-08-19T02:49:49;23.60;77.80
8707;DHT22;4390;49.302;9.306;2022-08-19T02:52:16;23.70;77.50
8707;DHT22;4390;49.302;9.306;2022-08-19T02:54:43;23.70;77.40
8707;DHT22;4390;49.302;9.306;2022-08-19T02:57:10;23.70;77.20
8707;DHT22;4390;49.302;9.306;2022-08-19T02:59:37;23.70;77.20
8707;DHT22;4390;49.302;9.306;2022-08-19T03:02:04;23.70;77.30
8707;DHT22;4390;49.302;9.306;2022-08-19T03:04:31;23.30;78.20
8707;DHT22;4390;49.302;9.306;2022-08-19T03:07:03;23.00;79.00
8707;DHT22;4390;49.302;9.306;2022-08-19T03:09:37;22.80;79.20
8707;DHT22;4390;49.302;9.306;2022-08-19T03:12:04;22.90;79.20
8707;DHT22;4390;49.302;9.306;2022-08-19T03:14:32;23.00;79.00
8707;DHT22;4390;49.302;9.306;2022-08-19T03:16:59;23.10;78.80
8707;DHT22;4390;49.302;9.306;2022-08-19T03:19:26;23.20;78.60
8707;DHT22;4390;49.302;9.306;2022-08-19T03:21:54;23.30;78.20
8707;DHT22;4390;49.302;9.306;2022-08-19T03:24:21;23.40;78.10
8707;DHT22;4390;49.302;9.306;2022-08-19T03:26:53;23.40;78.00
8707;DHT22;4390;49.302;9.306;2022-08-19T03:29:26;23.40;78.00
8707;DHT22;4390;49.302;9.306;2022-08-19T03:32:03;23.50;77.90
8707;DHT22;4390;49.302;9.306;2022-08-19T03:34:32;23.40;77.90
8707;DHT22;4390;49.302;9.306;2022-08-19T03:37:06;23.40;78.00
8707;DHT22;4390;49.302;9.306;2022-08-19T03:39:35;23.40;78.00
8707;DHT22;4390;49.302;9.306;2022-08-19T03:42:02;23.40;78.00
8707;DHT22;4390;49.302;9.306;2022-08-19T03:44:49;23.40;78.00
8707;DHT22;4390;49.302;9.306;2022-08-19T03:47:16;23.10;78.80
8707;DHT22;4390;49.302;9.306;2022-08-19T03:49:43;23.00;79.10
8707;DHT22;4390;49.302;9.306;2022-08-19T03:52:10;23.00;79.00
8707;DHT22;4390;49.302;9.306;2022-08-19T03:54:38;23.00;79.00
8707;DHT22;4390;49.302;9.306;2022-08-19T03:57:05;23.00;79.10
8707;DHT22;4390;49.302;9.306;2022-08-19T03:59:34;23.00;79.00
8707;DHT22;4390;49.302;9.306;2022-08-19T04:02:05;23.10;78.80
8707;DHT22;4390;49.302;9.306;2022-08-19T04:04:36;23.10;78.70
8707;DHT22;4390;49.302;9.306;2022-08-19T04:07:04;23.10;78.70
8707;DHT22;4390;49.302;9.306;2022-08-19T04:09:32;23.10;78.80
8707;DHT22;4390;49.302;9.306;2022-08-19T04:11:59;23.00;78.80
8707;DHT22;4390;49.302;9.306;2022-08-19T04:14:28;23.00;78.90
8707;DHT22;4390;49.302;9.306;2022-08-19T04:16:58;22.90;79.10
8707;DHT22;4390;49.302;9.306;2022-08-19T04:19:25;22.80;79.30
8707;DHT22;4390;49.302;9.306;2022-08-19T04:21:57;22.80;79.40
8707;DHT22;4390;49.302;9.306;2022-08-19T04:24:25;22.70;79.60
8707;DHT22;4390;49.302;9.306;2022-08-19T04:26:52;22.70;79.80
8707;DHT22;4390;49.302;9.306;2022-08-19T04:29:21;22.80;79.70
8707;DHT22;4390;49.302;9.306;2022-08-19T04:31:52;22.90;79.50
8707;DHT22;4390;49.302;9.306;2022-08-19T04:34:22;23.00;79.40
8707;DHT22;4390;49.302;9.306;2022-08-19T04:36:51;23.00;79.20
8707;DHT22;4390;49.302;9.306;2022-08-19T04:39:23;23.00;79.20
8707;DHT22;4390;49.302;9.306;2022-08-19T04:42:15;23.00;79.30
8707;DHT22;4390;49.302;9.306;2022-08-19T04:45:15;22.90;79.40
8707;DHT22;4390;49.302;9.306;2022-08-19T04:47:43;22.90;79.40
8707;DHT22;4390;49.302;9.306;2022-08-19T04:50:24;23.00;79.30
8707;DHT22;4390;49.302;9.306;2022-08-19T04:52:52;23.00;79.10
8707;DHT22;4390;49.302;9.306;2022-08-19T04:55:19;23.10;78.90
8707;DHT22;4390;49.302;9.306;2022-08-19T04:57:45;23.20;78.80
8707;DHT22;4390;49.302;9.306;2022-08-19T05:00:13;23.20;78.70
8707;DHT22;4390;49.302;9.306;2022-08-19T05:02:43;23.20;78.60
8707;DHT22;4390;49.302;9.306;2022-08-19T05:05:10;23.20;78.60
8707;DHT22;4390;49.302;9.306;2022-08-19T05:07:37;23.10;78.90
8707;DHT22;4390;49.302;9.306;2022-08-19T05:10:05;22.80;79.50
8707;DHT22;4390;49.302;9.306;2022-08-19T05:12:32;22.80;79.70
8707;DHT22;4390;49.302;9.306;2022-08-19T05:14:59;22.90;79.60
8707;DHT22;4390;49.302;9.306;2022-08-19T05:17:27;23.00;79.30
8707;DHT22;4390;49.302;9.306;2022-08-19T05:20:00;23.10;79.20
8707;DHT22;4390;49.302;9.306;2022-08-19T05:22:46;23.10;79.20
8707;DHT22;4390;49.302;9.306;2022-08-19T05:25:17;23.10;79.00
8707;DHT22;4390;49.302;9.306;2022-08-19T05:27:47;23.10;79.00
8707;DHT22;4390;49.302;9.306;2022-08-19T05:30:16;23.10;79.00
8707;DHT22;4390;49.302;9.306;2022-08-19T05:32:45;23.10;79.30
8707;DHT22;4390;49.302;9.306;2022-08-19T05:35:12;23.00;79.30
8707;DHT22;4390;49.302;9.306;2022-08-19T05:37:40;22.90;79.50
8707;DHT22;4390;49.302;9.306;2022-08-19T05:40:08;22.80;79.90
8707;DHT22;4390;49.302;9.306;2022-08-19T05:42:35;22.80;79.90
8707;DHT22;4390;49.302;9.306;2022-08-19T05:45:03;23.00;79.90
8707;DHT22;4390;49.302;9.306;2022-08-19T05:47:30;23.10;79.80
8707;DHT22;4390;49.302;9.306;2022-08-19T05:49:58;23.10;79.60
8707;DHT22;4390;49.302;9.306;2022-08-19T05:52:25;23.10;79.60
8707;DHT22;4390;49.302;9.306;2022-08-19T05:54:53;23.10;79.50
8707;DHT22;4390;49.302;9.306;2022-08-19T05:57:23;23.10;79.70
8707;DHT22;4390;49.302;9.306;2022-08-19T05:59:51;23.00;79.80
8707;DHT22;4390;49.302;9.306;2022-08-19T06:02:38;23.10;79.80
8707;DHT22;4390;49.302;9.306;2022-08-19T06:05:05;23.10;79.60
8707;DHT22;4390;49.302;9.306;2022-08-19T06:07:36;23.20;79.50
8707;DHT22;4390;49.302;9.306;2022-08-19T06:10:09;23.20;79.60
8707;DHT22;4390;49.302;9.306;2022-08-19T06:12:37;23.30;79.40
8707;DHT22;4390;49.302;9.306;2022-08-19T06:15:10;23.40;79.20
8707;DHT22;4390;49.302;9.306;2022-08-19T06:17:38;23.50;78.80
8707;DHT22;4390;49.302;9.306;2022-08-19T06:20:10;23.60;78.50
8707;DHT22;4390;49.302;9.306;2022-08-19T06:22:43;23.70;78.50
8707;DHT22;4390;49.302;9.306;2022-08-19T06:25:12;23.60;78.50
8707;DHT22;4390;49.302;9.306;2022-08-19T06:27:40;23.60;78.60
8707;DHT22;4390;49.302;9.306;2022-08-19T06:30:26;23.60;78.90
8707;DHT22;4390;49.302;9.306;2022-08-19T06:32:53;23.60;78.90
8707;DHT22;4390;49.302;9.306;2022-08-19T06:35:20;23.70;79.40
8707;DHT22;4390;49.302;9.306;2022-08-19T06:37:47;23.70;79.50
8707;DHT22;4390;49.302;9.306;2022-08-19T06:40:14;23.70;79.50
8707;DHT22;4390;49.302;9.306;2022-08-19T06:42:41;23.70;79.30
8707;DHT22;4390;49.302;9.306;2022-08-19T06:45:21;23.80;79.10
8707;DHT22;4390;49.302;9.306;2022-08-19T06:47:51;23.90;79.00
8707;DHT22;4390;49.302;9.306;2022-08-19T06:50:20;24.00;78.80
8707;DHT22;4390;49.302;9.306;2022-08-19T06:52:50;24.00;79.10
8707;DHT22;4390;49.302;9.306;2022-08-19T06:55:18;24.00;78.80
8707;DHT22;4390;49.302;9.306;2022-08-19T06:57:47;23.90;79.10
8707;DHT22;4390;49.302;9.306;2022-08-19T07:00:14;23.90;79.10
8707;DHT22;4390;49.302;9.306;2022-08-19T07:02:43;24.00;78.90
8707;DHT22;4390;49.302;9.306;2022-08-19T07:05:18;24.00;78.50
8707;DHT22;4390;49.302;9.306;2022-08-19T07:07:46;24.10;78.70
8707;DHT22;4390;49.302;9.306;2022-08-19T07:10:13;24.30;78.00
8707;DHT22;4390;49.302;9.306;2022-08-19T07:12:40;24.30;77.50
8707;DHT22;4390;49.302;9.306;2022-08-19T07:15:08;24.40;77.60
8707;DHT22;4390;49.302;9.306;2022-08-19T07:17:38;24.50;77.30
8707;DHT22;4390;49.302;9.306;2022-08-19T07:20:07;24.60;77.10
8707;DHT22;4390;49.302;9.306;2022-08-19T07:22:36;24.70;77.00
8707;DHT22;4390;49.302;9.306;2022-08-19T07:25:06;24.80;77.00
8707;DHT22;4390;49.302;9.306;2022-08-19T07:27:33;24.90;76.90
8707;DHT22;4390;49.302;9.306;2022-08-19T07:30:00;24.90;76.80
8707;DHT22;4390;49.302;9.306;2022-08-19T07:32:27;24.70;77.00
8707;DHT22;4390;49.302;9.306;2022-08-19T07:34:55;24.70;77.10
8707;DHT22;4390;49.302;9.306;2022-08-19T07:37:25;24.80;77.20
8707;DHT22;4390;49.302;9.306;2022-08-19T07:39:59;24.80;77.30
8707;DHT22;4390;49.302;9.306;2022-08-19T07:42:26;24.70;77.50
8707;DHT22;4390;49.302;9.306;2022-08-19T07:44:55;24.70;77.50
8707;DHT22;4390;49.302;9.306;2022-08-19T07:47:22;24.80;77.30
8707;DHT22;4390;49.302;9.306;2022-08-19T07:50:10;24.60;77.70
8707;DHT22;4390;49.302;9.306;2022-08-19T07:52:38;24.60;77.80
8707;DHT22;4390;49.302;9.306;2022-08-19T07:55:09;24.50;78.00
8707;DHT22;4390;49.302;9.306;2022-08-19T07:57:56;24.40;78.10
8707;DHT22;4390;49.302;9.306;2022-08-19T08:00:23;24.10;78.80
8707;DHT22;4390;49.302;9.306;2022-08-19T08:02:51;24.10;79.10
8707;DHT22;4390;49.302;9.306;2022-08-19T08:05:25;24.10;79.40
8707;DHT22;4390;49.302;9.306;2022-08-19T08:08:11;24.30;78.70
8707;DHT22;4390;49.302;9.306;2022-08-19T08:10:58;24.40;78.50
8707;DHT22;4390;49.302;9.306;2022-08-19T08:13:26;24.50;78.70
8707;DHT22;4390;49.302;9.306;2022-08-19T08:15:53;24.50;78.80
8707;DHT22;4390;49.302;9.306;2022-08-19T08:18:22;24.60;79.00
8707;DHT22;4390;49.302;9.306;2022-08-19T08:20:56;24.90;78.20
8707;DHT22;4390;49.302;9.306;2022-08-19T08:23:24;25.00;77.90
8707;DHT22;4390;49.302;9.306;2022-08-19T08:25:57;24.90;77.90
8707;DHT22;4390;49.302;9.306;2022-08-19T08:28:25;24.80;78.30
8707;DHT22;4390;49.302;9.306;2022-08-19T08:30:56;24.80;78.60
8707;DHT22;4390;49.302;9.306;2022-08-19T08:33:25;25.10;77.80
8707;DHT22;4390;49.302;9.306;2022-08-19T08:36:10;25.30;77.60
8707;DHT22;4390;49.302;9.306;2022-08-19T08:38:37;25.40;77.10
8707;DHT22;4390;49.302;9.306;2022-08-19T08:41:28;25.30;77.40
8707;DHT22;4390;49.302;9.306;2022-08-19T08:43:59;25.20;77.50
8707;DHT22;4390;49.302;9.306;2022-08-19T08:49:26;25.30;77.10
8707;DHT22;4390;49.302;9.306;2022-08-19T08:52:20;24.60;78.30
8707;DHT22;4390;49.302;9.306;2022-08-19T08:54:51;24.40;78.60
8707;DHT22;4390;49.302;9.306;2022-08-19T09:00:19;24.60;78.60
8707;DHT22;4390;49.302;9.306;2022-08-19T09:02:47;24.70;78.50
8707;DHT22;4390;49.302;9.306;2022-08-19T09:05:18;25.00;77.70
8707;DHT22;4390;49.302;9.306;2022-08-19T09:10:37;24.50;78.00
8707;DHT22;4390;49.302;9.306;2022-08-19T09:16:20;24.60;78.40
8707;DHT22;4390;49.302;9.306;2022-08-19T09:18:56;24.70;77.90
8707;DHT22;4390;49.302;9.306;2022-08-19T09:21:25;24.70;78.00
8707;DHT22;4390;49.302;9.306;2022-08-19T09:23:59;24.70;78.30
8707;DHT22;4390;49.302;9.306;2022-08-19T09:26:30;25.00;77.80
8707;DHT22;4390;49.302;9.306;2022-08-19T09:29:18;25.30;77.20
8707;DHT22;4390;49.302;9.306;2022-08-19T09:31:48;25.50;76.80
8707;DHT22;4390;49.302;9.306;2022-08-19T09:34:15;25.70;76.60
8707;DHT22;4390;49.302;9.306;2022-08-19T09:36:48;25.80;76.00
8707;DHT22;4390;49.302;9.306;2022-08-19T09:39:20;25.70;75.70
8707;DHT22;4390;49.302;9.306;2022-08-19T09:41:48;25.60;76.10
8707;DHT22;4390;49.302;9.306;2022-08-19T09:44:17;25.50;75.70
8707;DHT22;4390;49.302;9.306;2022-08-19T09:46:44;25.50;75.30
8707;DHT22;4390;49.302;9.306;2022-08-19T09:49:14;25.30;75.20
8707;DHT22;4390;49.302;9.306;2022-08-19T09:51:41;25.20;75.70
8707;DHT22;4390;49.302;9.306;2022-08-19T09:54:08;25.10;75.60
8707;DHT22;4390;49.302;9.306;2022-08-19T09:56:37;25.20;75.40
8707;DHT22;4390;49.302;9.306;2022-08-19T09:59:04;25.10;75.50
8707;DHT22;4390;49.302;9.306;2022-08-19T10:01:32;25.00;75.70
8707;DHT22;4390;49.302;9.306;2022-08-19T10:04:00;25.10;75.70
8707;DHT22;4390;49.302;9.306;2022-08-19T10:06:40;25.20;75.30
8707;DHT22;4390;49.302;9.306;2022-08-19T10:09:12;25.40;74.90
8707;DHT22;4390;49.302;9.306;2022-08-19T10:11:41;25.50;74.70
8707;DHT22;4390;49.302;9.306;2022-08-19T10:14:18;25.60;74.40
8707;DHT22;4390;49.302;9.306;2022-08-19T10:16:49;25.80;74.20
8707;DHT22;4390;49.302;9.306;2022-08-19T10:19:15;26.00;74.00
8707;DHT22;4390;49.302;9.306;2022-08-19T10:21:55;26.20;73.60
8707;DHT22;4390;49.302;9.306;2022-08-19T10:24:26;26.40;73.30
8707;DHT22;4390;49.302;9.306;2022-08-19T10:26:54;26.80;72.60
8707;DHT22;4390;49.302;9.306;2022-08-19T10:29:26;26.80;72.70
8707;DHT22;4390;49.302;9.306;2022-08-19T10:32:00;26.80;72.30
8707;DHT22;4390;49.302;9.306;2022-08-19T10:34:29;26.90;72.20
8707;DHT22;4390;49.302;9.306;2022-08-19T10:36:57;27.20;71.70
8707;DHT22;4390;49.302;9.306;2022-08-19T10:39:28;27.30;71.70
8707;DHT22;4390;49.302;9.306;2022-08-19T10:41:56;27.30;71.50
8707;DHT22;4390;49.302;9.306;2022-08-19T10:44:23;27.30;71.10
8707;DHT22;4390;49.302;9.306;2022-08-19T10:46:58;27.10;71.50
8707;DHT22;4390;49.302;9.306;2022-08-19T10:49:25;27.20;71.30
8707;DHT22;4390;49.302;9.306;2022-08-19T10:51:54;27.30;71.00
8707;DHT22;4390;49.302;9.306;2022-08-19T10:54:46;27.30;70.90
8707;DHT22;4390;49.302;9.306;2022-08-19T10:57:34;27.20;70.60
8707;DHT22;4390;49.302;9.306;2022-08-19T11:00:21;27.00;71.30
8707;DHT22;4390;49.302;9.306;2022-08-19T11:02:50;27.00;71.00
8707;DHT22;4390;49.302;9.306;2022-08-19T11:05:17;27.00;71.10
8707;DHT22;4390;49.302;9.306;2022-08-19T11:07:45;27.00;71.10
8707;DHT22;4390;49.302;9.306;2022-08-19T11:10:14;27.10;71.00
8707;DHT22;4390;49.302;9.306;2022-08-19T11:12:46;26.80;71.30
8707;DHT22;4390;49.302;9.306;2022-08-19T11:15:13;26.80;71.50
8707;DHT22;4390;49.302;9.306;2022-08-19T11:17:40;26.90;71.10
8707;DHT22;4390;49.302;9.306;2022-08-19T11:20:09;26.70;70.90
8707;DHT22;4390;49.302;9.306;2022-08-19T11:22:36;26.40;70.90
8707;DHT22;4390;49.302;9.306;2022-08-19T11:25:09;26.50;71.20
8707;DHT22;4390;49.302;9.306;2022-08-19T11:27:40;26.60;71.20
8707;DHT22;4390;49.302;9.306;2022-08-19T11:30:12;26.80;70.80
8707;DHT22;4390;49.302;9.306;2022-08-19T11:32:40;26.80;70.90
8707;DHT22;4390;49.302;9.306;2022-08-19T11:35:14;26.90;70.80
8707;DHT22;4390;49.302;9.306;2022-08-19T11:37:41;27.00;70.80
8707;DHT22;4390;49.302;9.306;2022-08-19T11:40:08;27.20;70.20
8707;DHT22;4390;49.302;9.306;2022-08-19T11:42:35;27.20;70.10
8707;DHT22;4390;49.302;9.306;2022-08-19T11:45:20;27.10;70.10
8707;DHT22;4390;49.302;9.306;2022-08-19T11:47:47;27.10;70.10
8707;DHT22;4390;49.302;9.306;2022-08-19T11:50:15;27.00;70.20
8707;DHT22;4390;49.302;9.306;2022-08-19T11:52:43;27.00;70.10
8707;DHT22;4390;49.302;9.306;2022-08-19T11:55:11;26.80;70.10
8707;DHT22;4390;49.302;9.306;2022-08-19T11:57:39;26.80;70.00
8707;DHT22;4390;49.302;9.306;2022-08-19T12:00:08;26.50;70.50
8707;DHT22;4390;49.302;9.306;2022-08-19T12:02:36;26.70;70.50
8707;DHT22;4390;49.302;9.306;2022-08-19T12:05:03;26.90;69.90
8707;DHT22;4390;49.302;9.306;2022-08-19T12:07:35;26.80;69.80
8707;DHT22;4390;49.302;9.306;2022-08-19T12:10:02;26.90;69.90
8707;DHT22;4390;49.302;9.306;2022-08-19T12:12:29;27.00;69.60
8707;DHT22;4390;49.302;9.306;2022-08-19T12:14:56;27.10;69.60
8707;DHT22;4390;49.302;9.306;2022-08-19T12:17:27;27.20;69.20
8707;DHT22;4390;49.302;9.306;2022-08-19T12:19:54;27.40;69.30
8707;DHT22;4390;49.302;9.306;2022-08-19T12:22:22;27.40;68.70
8707;DHT22;4390;49.302;9.306;2022-08-19T12:24:49;27.20;68.70
8707;DHT22;4390;49.302;9.306;2022-08-19T12:27:18;27.10;69.40
8707;DHT22;4390;49.302;9.306;2022-08-19T12:29:57;27.20;69.00
8707;DHT22;4390;49.302;9.306;2022-08-19T12:32:26;27.30;68.90
8707;DHT22;4390;49.302;9.306;2022-08-19T12:34:54;27.40;68.60
8707;DHT22;4390;49.302;9.306;2022-08-19T12:37:27;27.60;68.40
8707;DHT22;4390;49.302;9.306;2022-08-19T12:39:54;27.70;68.20
8707;DHT22;4390;49.302;9.306;2022-08-19T12:42:21;27.70;68.00
8707;DHT22;4390;49.302;9.306;2022-08-19T12:44:49;27.70;68.50
8707;DHT22;4390;49.302;9.306;2022-08-19T12:47:18;27.80;67.70
8707;DHT22;4390;49.302;9.306;2022-08-19T12:49:45;27.80;68.10
8707;DHT22;4390;49.302;9.306;2022-08-19T12:52:22;27.90;68.10
8707;DHT22;4390;49.302;9.306;2022-08-19T12:54:50;28.20;67.40
8707;DHT22;4390;49.302;9.306;2022-08-19T12:57:21;28.30;67.00
8707;DHT22;4390;49.302;9.306;2022-08-19T13:02:35;28.10;67.80
8707;DHT22;4390;49.302;9.306;2022-08-19T13:05:06;28.10;67.40
8707;DHT22;4390;49.302;9.306;2022-08-19T13:07:35;28.10;67.00
8707;DHT22;4390;49.302;9.306;2022-08-19T13:10:04;28.10;67.30
8707;DHT22;4390;49.302;9.306;2022-08-19T13:12:32;27.80;67.60
8707;DHT22;4390;49.302;9.306;2022-08-19T13:14:58;27.70;67.50
8707;DHT22;4390;49.302;9.306;2022-08-19T13:17:26;27.60;68.10
8707;DHT22;4390;49.302;9.306;2022-08-19T13:19:53;27.80;67.90
8707;DHT22;4390;49.302;9.306;2022-08-19T13:22:20;28.00;67.30
8707;DHT22;4390;49.302;9.306;2022-08-19T13:24:46;28.00;67.40
8707;DHT22;4390;49.302;9.306;2022-08-19T13:27:14;28.00;67.80
8707;DHT22;4390;49.302;9.306;2022-08-19T13:29:42;28.10;67.40
8707;DHT22;4390;49.302;9.306;2022-08-19T13:32:29;28.30;67.40
8707;DHT22;4390;49.302;9.306;2022-08-19T13:35:15;28.40;66.80
8707;DHT22;4390;49.302;9.306;2022-08-19T13:37:43;28.30;67.00
8707;DHT22;4390;49.302;9.306;2022-08-19T13:40:14;28.50;67.30
8707;DHT22;4390;49.302;9.306;2022-08-19T13:42:45;28.60;67.10
8707;DHT22;4390;49.302;9.306;2022-08-19T13:45:15;28.60;66.40
8707;DHT22;4390;49.302;9.306;2022-08-19T13:47:49;28.50;66.80
8707;DHT22;4390;49.302;9.306;2022-08-19T13:50:23;28.40;66.90
8707;DHT22;4390;49.302;9.306;2022-08-19T13:52:53;28.30;67.00
8707;DHT22;4390;49.302;9.306;2022-08-19T13:55:21;28.30;66.60
8707;DHT22;4390;49.302;9.306;2022-08-19T13:57:59;28.10;67.20
8707;DHT22;4390;49.302;9.306;2022-08-19T14:00:30;28.10;67.50
8707;DHT22;4390;49.302;9.306;2022-08-19T14:02:58;28.20;67.40
8707;DHT22;4390;49.302;9.306;2022-08-19T14:05:27;28.30;67.40
8707;DHT22;4390;49.302;9.306;2022-08-19T14:07:55;28.40;67.00
8707;DHT22;4390;49.302;9.306;2022-08-19T14:10:23;28.30;67.30
8707;DHT22;4390;49.302;9.306;2022-08-19T14:12:59;28.20;67.70
8707;DHT22;4390;49.302;9.306;2022-08-19T14:15:27;28.00;67.60
8707;DHT22;4390;49.302;9.306;2022-08-19T14:17:54;28.00;67.80
8707;DHT22;4390;49.302;9.306;2022-08-19T14:20:21;28.00;67.30
8707;DHT22;4390;49.302;9.306;2022-08-19T14:22:52;27.90;67.40
8707;DHT22;4390;49.302;9.306;2022-08-19T14:25:30;27.90;67.60
8707;DHT22;4390;49.302;9.306;2022-08-19T14:27:57;27.90;67.60
8707;DHT22;4390;49.302;9.306;2022-08-19T14:30:28;27.90;67.70
8707;DHT22;4390;49.302;9.306;2022-08-19T14:32:56;27.60;67.70
8707;DHT22;4390;49.302;9.306;2022-08-19T14:35:25;27.50;68.00
8707;DHT22;4390;49.302;9.306;2022-08-19T14:37:54;27.60;68.30
8707;DHT22;4390;49.302;9.306;2022-08-19T14:40:25;27.70;67.90
8707;DHT22;4390;49.302;9.306;2022-08-19T14:42:57;27.70;68.00
8707;DHT22;4390;49.302;9.306;2022-08-19T14:45:29;27.80;67.90
8707;DHT22;4390;49.302;9.306;2022-08-19T14:47:57;27.90;67.80
8707;DHT22;4390;49.302;9.306;2022-08-19T14:50:26;27.90;67.80
8707;DHT22;4390;49.302;9.306;2022-08-19T14:53:05;28.00;67.80
8707;DHT22;4390;49.302;9.306;2022-08-19T14:55:41;27.90;67.70
8707;DHT22;4390;49.302;9.306;2022-08-19T14:58:08;27.80;67.90
8707;DHT22;4390;49.302;9.306;2022-08-19T15:00:55;27.70;68.00
8707;DHT22;4390;49.302;9.306;2022-08-19T15:03:22;27.80;67.90
8707;DHT22;4390;49.302;9.306;2022-08-19T15:05:49;27.80;68.00
8707;DHT22;4390;49.302;9.306;2022-08-19T15:08:15;27.90;68.10
8707;DHT22;4390;49.302;9.306;2022-08-19T15:10:42;27.80;68.10
8707;DHT22;4390;49.302;9.306;2022-08-19T15:13:09;27.80;67.90
8707;DHT22;4390;49.302;9.306;2022-08-19T15:15:36;27.80;68.10
8707;DHT22;4390;49.302;9.306;2022-08-19T15:18:03;27.80;68.60
8707;DHT22;4390;49.302;9.306;2022-08-19T15:20:30;27.80;68.60
8707;DHT22;4390;49.302;9.306;2022-08-19T15:22:58;27.70;68.70
8707;DHT22;4390;49.302;9.306;2022-08-19T15:25:27;27.80;68.60
8707;DHT22;4390;49.302;9.306;2022-08-19T15:27:54;27.80;68.60
8707;DHT22;4390;49.302;9.306;2022-08-19T15:30:23;27.90;68.00
8707;DHT22;4390;49.302;9.306;2022-08-19T15:32:51;27.90;67.70
8707;DHT22;4390;49.302;9.306;2022-08-19T15:35:19;27.80;69.00
8707;DHT22;4390;49.302;9.306;2022-08-19T15:37:51;27.80;68.90
8707;DHT22;4390;49.302;9.306;2022-08-19T15:40:19;27.80;68.60
8707;DHT22;4390;49.302;9.306;2022-08-19T15:42:47;27.80;68.00
8707;DHT22;4390;49.302;9.306;2022-08-19T15:45:17;27.80;67.90
8707;DHT22;4390;49.302;9.306;2022-08-19T15:47:44;27.70;67.70
8707;DHT22;4390;49.302;9.306;2022-08-19T15:50:19;27.80;67.40
8707;DHT22;4390;49.302;9.306;2022-08-19T15:52:51;27.80;67.20
8707;DHT22;4390;49.302;9.306;2022-08-19T15:55:20;27.90;66.80
8707;DHT22;4390;49.302;9.306;2022-08-19T15:58:05;27.90;66.20
8707;DHT22;4390;49.302;9.306;2022-08-19T16:01:00;27.80;66.90
8707;DHT22;4390;49.302;9.306;2022-08-19T16:03:51;27.90;67.00
8707;DHT22;4390;49.302;9.306;2022-08-19T16:06:47;27.80;65.90
8707;DHT22;4390;49.302;9.306;2022-08-19T16:09:15;27.40;66.50
8707;DHT22;4390;49.302;9.306;2022-08-19T16:11:42;27.30;66.60
8707;DHT22;4390;49.302;9.306;2022-08-19T16:14:13;27.30;67.20
8707;DHT22;4390;49.302;9.306;2022-08-19T16:16:39;27.50;67.10
8707;DHT22;4390;49.302;9.306;2022-08-19T16:19:07;27.70;66.50
8707;DHT22;4390;49.302;9.306;2022-08-19T16:21:38;27.80;66.50
8707;DHT22;4390;49.302;9.306;2022-08-19T16:24:09;27.90;66.20
8707;DHT22;4390;49.302;9.306;2022-08-19T16:26:38;28.10;66.20
8707;DHT22;4390;49.302;9.306;2022-08-19T16:29:05;28.20;66.10
8707;DHT22;4390;49.302;9.306;2022-08-19T16:31:39;28.30;66.10
8707;DHT22;4390;49.302;9.306;2022-08-19T16:34:06;28.40;66.20
8707;DHT22;4390;49.302;9.306;2022-08-19T16:36:33;28.50;65.40
8707;DHT22;4390;49.302;9.306;2022-08-19T16:39:00;28.60;66.00
8707;DHT22;4390;49.302;9.306;2022-08-19T16:41:27;28.60;65.50